Time;durP1;ratioP1;P1;durP2;ratioP2;P2;SDS_P1;SDS_P2;PMS_P1;PMS_P2;Temp;Humidity;BMP_temperature;BMP_pressure;BME280_temperature;BME280_humidity;BME280_pressure;Samples;Min_cycle;Max_cycle;Signal;HPM_P1;HPM_P2
2023/11/27 00:02:22;;;;;;;15.70;7.57;;;;;;;3.32;nan;99673.31;5038245;27;97328;-73
2023/11/27 00:04:48;;;;;;;12.10;6.70;;;;;;;3.29;nan;99657.81;5021582;27;99114;-74
2023/11/27 00:07:14;;;;;;;13.33;7.53;;;;;;;3.22;nan;99653.56;5055523;27;96543;-73
2023/11/27 00:09:39;;;;;;;19.27;8.33;;;;;;;3.27;nan;99661.31;5073961;27;96820;-73
2023/11/27 00:12:06;;;;;;;16.03;8.63;;;;;;;3.09;nan;99658.09;5037841;27;97516;-74
2023/11/27 00:14:31;;;;;;;17.47;9.10;;;;;;;3.07;nan;99652.06;5037202;27;101972;-73
2023/11/27 00:16:57;;;;;;;17.63;8.80;;;;;;;3.17;nan;99653.66;5055314;27;96566;-74
2023/11/27 00:19:23;;;;;;;14.27;7.63;;;;;;;3.14;nan;99651.09;5038351;27;96906;-73
2023/11/27 00:21:48;;;;;;;17.20;7.93;;;;;;;3.21;nan;99654.47;5037939;27;101316;-73
2023/11/27 00:24:14;;;;;;;15.97;8.33;;;;;;;3.20;nan;99662.25;5055068;27;97354;-73
2023/11/27 00:26:39;;;;;;;12.37;8.03;;;;;;;3.25;nan;99665.63;5020648;27;96595;-74
2023/11/27 00:29:05;;;;;;;16.57;8.23;;;;;;;3.13;nan;99656.31;5037904;27;97001;-73
2023/11/27 00:31:32;;;;;;;16.70;7.83;;;;;;;3.28;nan;99665.59;5054625;27;100935;-73
2023/11/27 00:33:57;;;;;;;16.03;8.40;;;;;;;3.27;nan;99672.53;5055062;27;97373;-73
2023/11/27 00:36:23;;;;;;;13.80;8.07;;;;;;;3.22;nan;99660.50;5021236;27;97070;-73
2023/11/27 00:38:49;;;;;;;14.80;7.77;;;;;;;3.20;nan;99659.66;5073109;27;96750;-73
2023/11/27 00:41:14;;;;;;;15.60;8.10;;;;;;;3.23;nan;99667.38;5020838;27;100830;-73
2023/11/27 00:43:44;;;;;;;13.70;7.63;;;;;;;3.22;nan;99661.34;5020967;27;101366;-74
2023/11/27 00:46:10;;;;;;;15.73;7.90;;;;;;;3.23;nan;99650.13;5037955;27;96682;-73
2023/11/27 00:48:36;;;;;;;16.30;8.37;;;;;;;3.17;nan;99655.38;5054375;27;96872;-73
2023/11/27 00:51:02;;;;;;;14.57;8.33;;;;;;;3.20;nan;99662.25;5036881;27;101273;-73
2023/11/27 00:53:28;;;;;;;15.83;8.33;;;;;;;3.22;nan;99653.56;5037540;27;100835;-74
2023/11/27 00:55:53;;;;;;;14.50;7.67;;;;;;;3.15;nan;99652.81;5020844;27;96585;-73
2023/11/27 00:58:19;;;;;;;13.43;7.97;;;;;;;3.17;nan;99647.59;5037796;27;96729;-73
2023/11/27 01:00:44;;;;;;;14.87;8.37;;;;;;;3.20;nan;99657.06;5037671;27;98008;-73
2023/11/27 01:03:10;;;;;;;14.80;7.90;;;;;;;3.20;nan;99655.34;5037279;27;101301;-73
2023/11/27 01:05:37;;;;;;;12.67;7.03;;;;;;;3.24;nan;99651.81;5037401;27;96817;-73
2023/11/27 01:08:02;;;;;;;13.07;7.90;;;;;;;3.21;nan;99653.63;5037705;27;96582;-74
2023/11/27 01:10:29;;;;;;;16.27;6.70;;;;;;;3.24;nan;99649.22;5053947;27;98426;-73
2023/11/27 01:12:55;;;;;;;16.13;8.33;;;;;;;3.23;nan;99655.31;5020586;27;101316;-73
2023/11/27 01:15:21;;;;;;;13.50;8.23;;;;;;;3.18;nan;99649.31;5020068;27;97422;-73
2023/11/27 01:17:47;;;;;;;12.37;7.87;;;;;;;3.17;nan;99639.81;5037080;27;97343;-73
2023/11/27 01:20:12;;;;;;;15.43;7.80;;;;;;;3.27;nan;99645.72;5037198;27;101290;-74
2023/11/27 01:22:38;;;;;;;13.77;7.90;;;;;;;3.30;nan;99640.50;5036975;27;101490;-73
2023/11/27 01:25:04;;;;;;;13.33;7.50;;;;;;;3.33;nan;99645.63;5056459;27;96637;-73
2023/11/27 01:27:31;;;;;;;17.90;8.03;;;;;;;3.22;nan;99644.94;5057728;27;96759;-73
2023/11/27 01:29:57;;;;;;;19.30;8.10;;;;;;;3.19;nan;99643.25;5040332;27;101253;-73
2023/11/27 01:32:24;;;;;;;13.73;7.80;;;;;;;3.18;nan;99644.13;5020641;27;101762;-73
2023/11/27 01:34:53;;;;;;;19.40;8.80;;;;;;;3.17;nan;99650.19;5036594;27;96742;-73
2023/11/27 01:37:19;;;;;;;17.60;8.60;;;;;;;3.13;nan;99648.53;5040581;27;96834;-73
2023/11/27 01:39:45;;;;;;;13.77;7.50;;;;;;;3.08;nan;99642.53;5023141;27;101130;-73
2023/11/27 01:42:11;;;;;;;14.60;7.27;;;;;;;3.00;nan;99641.81;5057732;27;97778;-73
2023/11/27 01:44:37;;;;;;;13.23;8.20;;;;;;;3.04;nan;99640.88;5040238;27;96760;-74
2023/11/27 01:47:03;;;;;;;12.67;6.97;;;;;;;3.04;nan;99644.31;5040424;27;96976;-73
2023/11/27 01:49:29;;;;;;;13.87;7.20;;;;;;;3.00;nan;99649.59;5057562;27;97900;-73
2023/11/27 01:51:55;;;;;;;16.23;7.60;;;;;;;3.03;nan;99653.00;5040076;27;101421;-74
2023/11/27 01:54:21;;;;;;;12.97;7.20;;;;;;;3.08;nan;99650.31;5040354;27;96659;-73
2023/11/27 01:56:48;;;;;;;15.37;8.40;;;;;;;3.06;nan;99649.50;5040585;27;96729;-74
2023/11/27 01:59:14;;;;;;;18.03;8.87;;;;;;;3.06;nan;99652.94;5040107;27;100583;-74
2023/11/27 02:01:39;;;;;;;16.67;8.87;;;;;;;3.05;nan;99656.41;5023176;27;99849;-73
2023/11/27 02:04:05;;;;;;;16.33;7.20;;;;;;;3.02;nan;99647.81;5022929;27;97203;-73
2023/11/27 02:06:31;;;;;;;17.57;9.50;;;;;;;3.00;nan;99640.06;5057519;27;96782;-73
2023/11/27 02:08:57;;;;;;;19.50;8.70;;;;;;;2.93;nan;99648.78;5040310;27;98046;-73
2023/11/27 02:11:25;;;;;;;22.27;9.57;;;;;;;2.92;nan;99639.31;5022634;27;101429;-73
2023/11/27 02:13:50;;;;;;;22.27;9.93;;;;;;;2.88;nan;99648.00;5040681;27;96620;-73
2023/11/27 02:16:16;;;;;;;22.93;10.73;;;;;;;2.93;nan;99661.75;5040380;27;96745;-73
2023/11/27 02:18:42;;;;;;;20.37;10.10;;;;;;;2.87;nan;99654.06;5057142;27;97990;-73
2023/11/27 02:21:08;;;;;;;17.83;8.97;;;;;;;2.86;nan;99648.03;5023390;27;100895;-73
2023/11/27 02:23:34;;;;;;;16.90;8.13;;;;;;;2.84;nan;99656.69;5039899;27;96638;-73
2023/11/27 02:26:00;;;;;;;16.17;8.43;;;;;;;2.84;nan;99648.94;5023143;27;96670;-73
2023/11/27 02:28:26;;;;;;;16.57;7.80;;;;;;;2.75;nan;99638.69;5022563;27;100725;-73
2023/11/27 02:30:51;;;;;;;17.87;8.60;;;;;;;2.76;nan;99641.25;5039867;27;98515;-73
2023/11/27 02:33:17;;;;;;;17.47;9.43;;;;;;;2.78;nan;99639.50;5056981;27;96568;-73
2023/11/27 02:35:43;;;;;;;19.00;9.33;;;;;;;2.79;nan;99633.41;5021967;27;96679;-74
2023/11/27 02:38:08;;;;;;;30.77;13.20;;;;;;;2.76;nan;99630.03;5040038;27;97326;-73
2023/11/27 02:40:34;;;;;;;42.93;16.97;;;;;;;2.82;nan;99630.81;5039839;27;98304;-74
2023/11/27 02:42:59;;;;;;;50.23;18.17;;;;;;;2.85;nan;99632.47;5039691;27;96649;-73
2023/11/27 02:45:26;;;;;;;43.37;17.30;;;;;;;2.76;nan;99624.84;5057240;27;96726;-74
2023/11/27 02:47:51;;;;;;;38.57;14.97;;;;;;;2.68;nan;99617.19;5039425;27;101479;-73
2023/11/27 02:50:18;;;;;;;27.00;11.47;;;;;;;2.56;nan;99612.13;5039421;27;100822;-73
2023/11/27 02:52:45;;;;;;;23.70;10.13;;;;;;;2.57;nan;99613.88;5038975;27;97589;-74
2023/11/27 02:55:11;;;;;;;22.13;10.10;;;;;;;2.55;nan;99613.88;5022745;27;96930;-74
2023/11/27 02:57:37;;;;;;;20.90;10.37;;;;;;;2.44;nan;99602.78;5039265;27;101196;-73
2023/11/27 03:00:05;;;;;;;19.70;9.27;;;;;;;2.46;nan;99594.13;5039967;27;97307;-73
2023/11/27 03:02:32;;;;;;;22.03;10.17;;;;;;;2.44;nan;99593.31;5056610;27;96704;-74
2023/11/27 03:04:58;;;;;;;19.23;8.67;;;;;;;2.57;nan;99593.13;5022395;27;96797;-74
2023/11/27 03:07:23;;;;;;;19.63;9.50;;;;;;;2.53;nan;99594.91;5039203;27;101638;-73
2023/11/27 03:09:49;;;;;;;18.17;9.03;;;;;;;2.54;nan;99596.63;5056292;27;100807;-73
2023/11/27 03:12:15;;;;;;;14.93;7.93;;;;;;;2.53;nan;99591.44;5038660;27;100157;-74
2023/11/27 03:14:40;;;;;;;17.93;8.17;;;;;;;2.51;nan;99586.31;5022378;27;96810;-73
2023/11/27 03:17:06;;;;;;;15.97;8.23;;;;;;;2.51;nan;99588.88;5038351;27;101004;-73
2023/11/27 03:19:31;;;;;;;13.80;8.23;;;;;;;2.43;nan;99588.97;5038930;27;100833;-74
2023/11/27 03:21:57;;;;;;;17.40;8.27;;;;;;;2.39;nan;99591.66;5039088;27;96716;-73
2023/11/27 03:24:22;;;;;;;16.27;8.90;;;;;;;2.37;nan;99583.03;5039073;27;96826;-73
2023/11/27 03:26:48;;;;;;;14.93;8.90;;;;;;;2.33;nan;99587.41;5055820;27;101860;-73
2023/11/27 03:29:13;;;;;;;14.57;8.03;;;;;;;2.36;nan;99586.50;5074309;27;97874;-73
2023/11/27 03:31:39;;;;;;;13.93;7.63;;;;;;;2.41;nan;99595.91;5055715;27;96712;-73
2023/11/27 03:34:04;;;;;;;15.13;7.97;;;;;;;2.36;nan;99594.28;5022243;27;96728;-73
2023/11/27 03:36:30;;;;;;;15.33;8.47;;;;;;;2.29;nan;99588.28;5021901;27;101128;-73
2023/11/27 03:38:57;;;;;;;13.33;7.57;;;;;;;2.21;nan;99595.28;5038318;27;99191;-73
2023/11/27 03:41:22;;;;;;;15.07;8.80;;;;;;;2.28;nan;99594.34;5038394;27;97457;-73
2023/11/27 03:43:48;;;;;;;21.30;10.77;;;;;;;2.08;nan;99593.72;5055508;27;96770;-73
2023/11/27 03:46:14;;;;;;;20.93;12.87;;;;;;;2.16;nan;99589.31;5038070;27;101244;-73
2023/11/27 03:48:40;;;;;;;21.10;14.27;;;;;;;2.09;nan;99588.50;5055378;27;97277;-73
2023/11/27 03:51:06;;;;;;;26.40;15.67;;;;;;;2.11;nan;99581.59;5021799;27;96626;-73
2023/11/27 03:53:32;;;;;;;23.57;15.57;;;;;;;2.10;nan;99584.22;5021578;27;96788;-73
2023/11/27 03:55:57;;;;;;;24.03;14.43;;;;;;;2.10;nan;99594.56;5021598;27;100742;-73
2023/11/27 03:58:24;;;;;;;20.77;14.50;;;;;;;2.01;nan;99585.19;5018527;27;101284;-73
2023/11/27 04:00:49;;;;;;;26.83;15.17;;;;;;;1.99;nan;99595.53;5034060;27;96658;-73
2023/11/27 04:03:15;;;;;;;23.33;14.67;;;;;;;2.00;nan;99594.66;5038266;27;96876;-73
2023/11/27 04:05:40;;;;;;;26.43;14.87;;;;;;;1.97;nan;99594.69;5020704;27;101627;-73
2023/11/27 04:08:07;;;;;;;19.03;12.27;;;;;;;1.96;nan;99598.16;5051746;27;97473;-73
2023/11/27 04:10:34;;;;;;;18.20;10.53;;;;;;;1.97;nan;99591.25;5037778;27;96715;-73
2023/11/27 04:13:00;;;;;;;23.13;12.10;;;;;;;2.01;nan;99604.16;5038632;27;96605;-73
2023/11/27 04:15:25;;;;;;;18.67;11.13;;;;;;;2.00;nan;99588.63;5021222;27;100653;-73
2023/11/27 04:17:51;;;;;;;16.87;10.40;;;;;;;2.01;nan;99596.38;5038131;27;97890;-73
2023/11/27 04:20:16;;;;;;;15.20;8.67;;;;;;;1.97;nan;99591.25;5038420;27;96517;-74
2023/11/27 04:22:43;;;;;;;16.67;9.20;;;;;;;1.94;nan;99579.19;5021551;27;96835;-73
2023/11/27 04:25:09;;;;;;;14.37;8.70;;;;;;;2.03;nan;99575.63;5021244;27;101801;-73
2023/11/27 04:27:34;;;;;;;19.20;10.80;;;;;;;2.05;nan;99573.91;5037656;27;101038;-73
2023/11/27 04:30:00;;;;;;;24.67;13.70;;;;;;;2.01;nan;99567.06;5054496;27;97856;-73
2023/11/27 04:32:25;;;;;;;20.47;12.33;;;;;;;1.93;nan;99564.53;5055019;27;96800;-73
2023/11/27 04:34:52;;;;;;;16.77;9.83;;;;;;;1.95;nan;99573.16;5037748;27;101029;-73
2023/11/27 04:37:17;;;;;;;15.93;9.43;;;;;;;1.97;nan;99566.22;5037336;27;101505;-74
2023/11/27 04:39:43;;;;;;;19.23;10.27;;;;;;;1.92;nan;99552.47;5021005;27;96595;-73
2023/11/27 04:42:10;;;;;;;18.73;10.77;;;;;;;1.97;nan;99555.84;5037917;27;96848;-73
2023/11/27 04:44:36;;;;;;;23.50;11.60;;;;;;;1.96;nan;99564.50;5055060;27;97453;-74
2023/11/27 04:47:01;;;;;;;21.50;10.73;;;;;;;2.02;nan;99563.56;5037987;27;101856;-73
2023/11/27 04:49:27;;;;;;;20.87;10.90;;;;;;;1.97;nan;99558.44;5073041;27;96461;-73
2023/11/27 04:51:52;;;;;;;21.20;11.00;;;;;;;1.97;nan;99565.34;5020503;27;96843;-73
2023/11/27 04:54:18;;;;;;;18.73;9.73;;;;;;;1.97;nan;99566.22;5037019;27;101164;-73
2023/11/27 04:56:44;;;;;;;16.53;9.50;;;;;;;1.94;nan;99558.47;5037277;27;100766;-74
2023/11/27 04:59:10;;;;;;;15.77;8.90;;;;;;;1.83;nan;99542.19;5020013;27;96689;-73
2023/11/27 05:01:36;;;;;;;17.53;9.33;;;;;;;1.99;nan;99556.69;5054513;27;96510;-73
2023/11/27 05:04:01;;;;;;;14.60;8.13;;;;;;;1.97;nan;99550.69;5037604;27;97437;-73
2023/11/27 05:06:28;;;;;;;16.37;9.40;;;;;;;1.91;nan;99555.91;5037275;27;100718;-73
2023/11/27 05:08:54;;;;;;;14.27;8.87;;;;;;;1.89;nan;99555.09;5054854;27;96638;-73
2023/11/27 05:11:20;;;;;;;18.87;10.40;;;;;;;1.83;nan;99560.31;5053629;27;96804;-73
2023/11/27 05:13:48;;;;;;;17.07;9.17;;;;;;;1.78;nan;99564.72;5037008;27;101590;-73
2023/11/27 05:16:14;;;;;;;18.43;9.87;;;;;;;1.77;nan;99565.56;5020260;27;101218;-73
2023/11/27 05:18:41;;;;;;;18.67;9.47;;;;;;;1.76;nan;99550.91;5036733;27;96970;-73
2023/11/27 05:21:12;;;;;;;16.40;9.37;;;;;;;1.78;nan;99550.03;5020516;27;96975;-73
2023/11/27 05:23:41;;;;;;;16.83;9.73;;;;;;;1.72;nan;99554.44;5036939;27;100632;-73
2023/11/27 05:26:10;;;;;;;15.00;9.17;;;;;;;1.66;nan;99545.00;5020579;27;101481;-73
2023/11/27 05:28:40;;;;;;;18.27;9.30;;;;;;;1.69;nan;99552.72;5037161;27;96475;-73
2023/11/27 05:31:06;;;;;;;20.83;9.73;;;;;;;1.78;nan;99552.63;5020498;27;96837;-73
2023/11/27 05:33:35;;;;;;;16.17;9.77;;;;;;;1.81;nan;99534.47;5037219;27;98412;-73
2023/11/27 05:36:04;;;;;;;17.50;10.10;;;;;;;1.82;nan;99537.91;5037620;27;97754;-73
2023/11/27 05:38:30;;;;;;;19.13;10.00;;;;;;;1.79;nan;99541.38;5020099;27;97039;-73
2023/11/27 05:41:01;;;;;;;17.30;9.60;;;;;;;1.80;nan;99532.78;5054293;27;96693;-73
2023/11/27 05:43:27;;;;;;;15.23;8.77;;;;;;;1.68;nan;99537.19;5037464;27;97774;-73
2023/11/27 05:45:52;;;;;;;16.80;9.33;;;;;;;1.66;nan;99534.66;5072502;27;97496;-73
2023/11/27 05:48:18;;;;;;;18.93;9.07;;;;;;;1.68;nan;99542.38;5054531;27;96526;-73
2023/11/27 05:50:46;;;;;;;19.27;10.10;;;;;;;1.76;nan;99544.00;5053865;27;96965;-73
2023/11/27 05:53:14;;;;;;;17.80;9.90;;;;;;;1.69;nan;99547.56;5019821;27;101027;-73
2023/11/27 05:55:40;;;;;;;15.57;8.93;;;;;;;1.70;nan;99561.34;5054019;27;97327;-73
2023/11/27 05:58:06;;;;;;;20.07;9.73;;;;;;;1.53;nan;99543.38;5036871;27;96563;-73
2023/11/27 06:00:32;;;;;;;18.63;10.10;;;;;;;1.54;nan;99556.31;5020194;27;96726;-73
2023/11/27 06:02:58;;;;;;;15.43;9.93;;;;;;;1.51;nan;99539.94;5036398;27;101139;-73
2023/11/27 06:05:24;;;;;;;16.47;10.00;;;;;;;1.62;nan;99557.97;5053751;27;97430;-73
2023/11/27 06:07:49;;;;;;;21.17;9.77;;;;;;;1.57;nan;99558.00;5036212;27;96521;-74
2023/11/27 06:10:16;;;;;;;17.43;10.37;;;;;;;1.55;nan;99547.69;5019921;27;96921;-73
2023/11/27 06:12:42;;;;;;;21.10;12.10;;;;;;;1.59;nan;99551.09;5057289;27;98377;-73
2023/11/27 06:15:08;;;;;;;17.53;10.30;;;;;;;1.55;nan;99544.25;5039862;27;101149;-74
2023/11/27 06:17:33;;;;;;;19.27;10.67;;;;;;;1.52;nan;99554.63;5056784;27;96691;-73
2023/11/27 06:19:59;;;;;;;20.13;11.90;;;;;;;1.45;nan;99558.97;5039945;27;96908;-73
2023/11/27 06:22:26;;;;;;;23.13;12.43;;;;;;;1.44;nan;99553.81;5039647;27;101588;-73
2023/11/27 06:24:51;;;;;;;21.40;11.37;;;;;;;1.47;nan;99551.22;5057266;27;97323;-73
2023/11/27 06:27:17;;;;;;;19.80;11.57;;;;;;;1.53;nan;99551.16;5039750;27;96589;-73
2023/11/27 06:29:43;;;;;;;24.63;12.90;;;;;;;1.53;nan;99551.16;5075329;27;96707;-73
2023/11/27 06:32:08;;;;;;;21.03;12.10;;;;;;;1.51;nan;99551.19;5022056;27;101740;-73
2023/11/27 06:34:34;;;;;;;24.67;11.60;;;;;;;1.49;nan;99560.69;5022780;27;101572;-73
2023/11/27 06:36:59;;;;;;;22.30;12.47;;;;;;;1.44;nan;99561.59;5056742;27;96633;-73
2023/11/27 06:39:28;;;;;;;24.73;12.23;;;;;;;1.45;nan;99558.13;5039562;27;96717;-73
2023/11/27 06:41:55;;;;;;;21.87;11.37;;;;;;;1.38;nan;99559.91;5056533;27;97869;-73
2023/11/27 06:44:20;;;;;;;21.43;12.40;;;;;;;1.31;nan;99543.59;5035649;27;99220;-73
2023/11/27 06:46:46;;;;;;;19.83;11.37;;;;;;;1.49;nan;99555.50;5019960;27;96801;-73
2023/11/27 06:49:11;;;;;;;25.53;12.33;;;;;;;1.43;nan;99537.47;5056952;27;96832;-73
2023/11/27 06:51:37;;;;;;;21.93;12.63;;;;;;;1.45;nan;99552.94;5039437;27;97382;-73
2023/11/27 06:54:03;;;;;;;23.23;12.13;;;;;;;1.45;nan;99551.22;5039498;27;97267;-74
2023/11/27 06:56:33;;;;;;;25.17;12.37;;;;;;;1.52;nan;99552.03;5022083;27;97227;-73
2023/11/27 06:59:05;;;;;;;25.17;13.57;;;;;;;1.45;nan;99542.59;5039588;27;96739;-73
2023/11/27 07:01:31;;;;;;;26.60;13.87;;;;;;;1.56;nan;99546.78;5022306;27;98963;-73
2023/11/27 07:03:58;;;;;;;26.07;12.97;;;;;;;1.55;nan;99529.56;5056241;27;97598;-73
2023/11/27 07:06:25;;;;;;;21.57;11.30;;;;;;;1.65;nan;99545.84;5039325;27;96559;-73
2023/11/27 07:08:51;;;;;;;23.53;13.40;;;;;;;1.67;nan;99546.69;5056249;27;96710;-73
2023/11/27 07:11:16;;;;;;;20.97;12.47;;;;;;;1.67;nan;99533.75;5035259;27;97396;-73
2023/11/27 07:13:42;;;;;;;25.93;13.60;;;;;;;1.73;nan;99536.28;5019042;27;100592;-73
2023/11/27 07:16:08;;;;;;;24.43;12.90;;;;;;;1.81;nan;99521.53;5052651;27;96556;-73
2023/11/27 07:18:34;;;;;;;19.83;11.70;;;;;;;2.01;nan;99544.59;5018656;27;96922;-73
2023/11/27 07:21:00;;;;;;;26.13;13.37;;;;;;;2.08;nan;99547.97;5052190;27;97470;-73
2023/11/27 07:23:28;;;;;;;25.37;14.03;;;;;;;2.10;nan;99540.19;5053464;27;97298;-73
2023/11/27 07:25:54;;;;;;;26.87;13.97;;;;;;;2.19;nan;99545.25;5035323;27;96667;-74
2023/11/27 07:28:19;;;;;;;24.07;12.93;;;;;;;2.28;nan;99546.88;5035654;27;96804;-73
2023/11/27 07:30:46;;;;;;;25.07;14.53;;;;;;;2.59;nan;99545.59;5035294;27;100977;-73
2023/11/27 07:33:12;;;;;;;23.63;13.53;;;;;;;2.77;nan;99543.63;5035215;27;101114;-73
2023/11/27 07:35:39;;;;;;;27.97;14.33;;;;;;;3.17;nan;99547.31;5035230;27;96537;-73
2023/11/27 07:38:05;;;;;;;25.37;15.00;;;;;;;3.36;nan;99547.84;5052858;27;97180;-73
2023/11/27 07:40:30;;;;;;;30.30;14.30;;;;;;;3.76;nan;99544.56;5052102;27;97422;-74
2023/11/27 07:42:56;;;;;;;24.27;13.73;;;;;;;4.12;nan;99541.28;5034824;27;100824;-73
2023/11/27 07:45:22;;;;;;;21.93;13.17;;;;;;;4.49;nan;99528.38;5032384;27;96684;-73
2023/11/27 07:47:47;;;;;;;33.87;13.97;;;;;;;4.73;nan;99524.38;5052840;27;96920;-73
2023/11/27 07:50:13;;;;;;;23.53;13.87;;;;;;;4.85;nan;99524.06;5039005;27;97585;-73
2023/11/27 07:52:38;;;;;;;24.17;12.63;;;;;;;4.98;nan;99512.50;5038762;27;97394;-74
2023/11/27 07:55:05;;;;;;;23.67;12.93;;;;;;;5.38;nan;99529.75;5021736;27;96673;-73
2023/11/27 07:57:32;;;;;;;20.67;11.80;;;;;;;5.75;nan;99518.34;5038283;27;96774;-74
2023/11/27 08:00:01;;;;;;;18.65;10.68;;;;;;;6.15;nan;99519.88;5055567;27;97415;-74
2023/11/27 08:02:26;;;;;;;20.35;12.10;;;;;;;6.33;nan;99511.50;5038551;27;101364;-74
2023/11/27 08:04:52;;;;;;;18.55;11.63;;;;;;;6.40;nan;99517.44;5038218;27;96627;-74
2023/11/27 08:07:17;;;;;;;18.13;10.90;;;;;;;6.49;nan;99519.75;5028020;27;96841;-74
2023/11/27 08:09:46;;;;;;;17.35;10.90;;;;;;;6.94;nan;99527.03;5031350;27;97530;-74
2023/11/27 08:12:13;;;;;;;19.40;10.18;;;;;;;6.99;nan;99529.53;5037590;27;100883;-75
2023/11/27 08:14:41;;;;;;;17.23;8.57;;;;;;;7.07;nan;99522.31;5038296;27;96921;-74
2023/11/27 08:17:07;;;;;;;14.05;8.20;;;;;;;7.25;nan;99520.84;5051815;27;96716;-74
2023/11/27 08:19:33;;;;;;;14.80;9.07;;;;;;;7.41;nan;99514.19;5034777;27;97463;-74
2023/11/27 08:22:05;;;;;;;12.07;7.93;;;;;;;7.51;nan;99493.84;5020225;27;101135;-75
2023/11/27 08:24:35;;;;;;;14.57;8.90;;;;;;;7.66;nan;99502.91;5022276;27;96674;-75
2023/11/27 08:27:01;;;;;;;12.10;7.80;;;;;;;8.05;nan;99500.63;5021583;27;96776;-75
2023/11/27 08:29:32;;;;;;;13.82;9.32;;;;;;;8.40;nan;99488.00;5037991;27;101548;-75
2023/11/27 08:31:59;;;;;;;18.42;8.85;;;;;;;8.39;nan;99492.41;5053970;27;97387;-75
2023/11/27 08:34:25;;;;;;;12.60;8.25;;;;;;;8.28;nan;99497.16;5019750;27;97360;-75
2023/11/27 08:36:51;;;;;;;12.50;8.20;;;;;;;9.06;nan;99488.03;5055146;27;96887;-75
2023/11/27 08:39:17;;;;;;;15.32;9.05;;;;;;;9.01;nan;99477.72;5037519;27;101482;-75
2023/11/27 08:41:43;;;;;;;14.13;8.82;;;;;;;9.00;nan;99483.91;5037691;27;100559;-75
2023/11/27 08:44:08;;;;;;;13.18;7.93;;;;;;;9.64;nan;99477.72;5037691;27;96574;-75
2023/11/27 08:46:35;;;;;;;16.00;8.10;;;;;;;10.06;nan;99481.97;5051685;27;96735;-75
2023/11/27 08:49:03;;;;;;;13.48;7.82;;;;;;;10.37;nan;99480.59;5020140;27;99353;-75
2023/11/27 08:51:30;;;;;;;15.07;7.70;;;;;;;10.31;nan;99483.50;5037966;27;101296;-75
2023/11/27 08:53:56;;;;;;;11.10;7.25;;;;;;;10.08;nan;99482.75;5037597;27;96616;-75
2023/11/27 08:56:22;;;;;;;12.02;7.82;;;;;;;10.17;nan;99478.84;5073347;27;96749;-75
2023/11/27 08:58:47;;;;;;;13.07;7.78;;;;;;;10.66;nan;99484.47;5053685;27;97569;-75
2023/11/27 09:01:16;;;;;;;11.85;7.47;;;;;;;10.90;nan;99479.81;5050956;27;97341;-75
2023/11/27 09:03:45;;;;;;;13.95;7.55;;;;;;;11.28;nan;99480.53;5050779;27;96535;-75
2023/11/27 09:06:11;;;;;;;13.00;7.95;;;;;;;11.31;nan;99479.53;5051248;27;96865;-75
2023/11/27 09:08:39;;;;;;;14.48;8.30;;;;;;;10.68;nan;99471.31;5016865;27;100850;-75
2023/11/27 09:11:06;;;;;;;14.55;7.60;;;;;;;10.97;nan;99485.66;5053723;27;97491;-75
2023/11/27 09:13:32;;;;;;;18.02;7.82;;;;;;;10.82;nan;99474.09;5037560;27;96720;-75
2023/11/27 09:15:58;;;;;;;16.13;10.00;;;;;;;11.07;nan;99471.97;5073261;27;96773;-76
2023/11/27 09:18:24;;;;;;;21.92;11.23;;;;;;;11.21;nan;99473.06;5036889;27;100878;-75
2023/11/27 09:20:50;;;;;;;14.13;8.27;;;;;;;11.48;nan;99460.28;5072417;27;97385;-75
2023/11/27 09:23:16;;;;;;;16.80;10.82;;;;;;;11.07;nan;99450.09;5053400;27;96873;-75
2023/11/27 09:25:41;;;;;;;14.48;8.88;;;;;;;11.05;nan;99458.09;5020216;27;97170;-75
2023/11/27 09:28:07;;;;;;;14.82;8.88;;;;;;;11.07;nan;99450.94;5037066;27;101121;-75
2023/11/27 09:30:32;;;;;;;17.30;9.82;;;;;;;10.68;nan;99456.41;5053579;27;101441;-76
2023/11/27 09:32:58;;;;;;;20.65;10.27;;;;;;;10.38;nan;99458.69;5037008;27;96570;-75
2023/11/27 09:35:23;;;;;;;17.42;8.40;;;;;;;10.11;nan;99450.28;5037144;27;96943;-76
2023/11/27 09:37:49;;;;;;;57.67;25.58;;;;;;;10.01;nan;99449.03;5036810;27;101080;-75
2023/11/27 09:40:15;;;;;;;39.67;20.55;;;;;;;9.92;nan;99443.28;5054376;27;97863;-76
2023/11/27 09:42:41;;;;;;;34.17;17.10;;;;;;;10.12;nan;99455.47;5037264;27;96604;-74
2023/11/27 09:45:12;;;;;;;30.42;16.52;;;;;;;9.79;nan;99446.50;5054450;27;96825;-75
2023/11/27 09:47:38;;;;;;;17.55;9.70;;;;;;;9.58;nan;99445.69;5040365;27;97350;-75
2023/11/27 09:50:08;;;;;;;22.38;12.45;;;;;;;9.54;nan;99447.59;5057626;27;97552;-75
2023/11/27 09:53:05;;;;;;;19.35;7.80;;;;;;;9.43;nan;99442.81;5041048;27;96723;-81
2023/11/27 09:55:38;;;;;;;15.15;9.43;;;;;;;9.48;nan;99438.25;5040663;27;96977;-75
2023/11/27 09:58:13;;;;;;;22.83;10.65;;;;;;;9.29;nan;99445.19;5040710;27;100961;-75
2023/11/27 10:00:41;;;;;;;13.10;7.20;;;;;;;9.24;nan;99437.50;5058997;27;97296;-75
2023/11/27 10:03:07;;;;;;;25.90;12.88;;;;;;;9.18;nan;99431.69;5040557;27;96623;-76
2023/11/27 10:05:32;;;;;;;27.63;14.10;;;;;;;8.98;nan;99422.03;5023439;27;96805;-74
2023/11/27 10:07:58;;;;;;;18.08;6.97;;;;;;;8.97;nan;99428.22;5075321;27;98430;-76
2023/11/27 10:10:26;;;;;;;17.88;8.15;;;;;;;8.91;nan;99423.22;5039743;27;97450;-79
2023/11/27 10:12:59;;;;;;;27.83;13.43;;;;;;;8.89;nan;99419.81;5039590;27;97374;-75
2023/11/27 10:15:28;;;;;;;17.70;8.25;;;;;;;8.90;nan;99413.66;5040152;27;96976;-77
2023/11/27 10:17:55;;;;;;;18.10;8.82;;;;;;;8.89;nan;99417.19;5039717;27;100853;-78
2023/11/27 10:20:22;;;;;;;16.88;6.13;;;;;;;8.96;nan;99409.03;5022823;27;101119;-75
2023/11/27 10:22:47;;;;;;;14.90;8.20;;;;;;;8.71;nan;99409.19;5075131;27;96490;-75
2023/11/27 10:25:16;;;;;;;8.95;5.72;;;;;;;8.47;nan;99410.19;5056539;27;96628;-77
2023/11/27 10:27:43;;;;;;;12.77;5.57;;;;;;;8.69;nan;99408.38;5023058;27;99282;-75
2023/11/27 10:30:19;;;;;;;12.45;6.55;;;;;;;8.60;nan;99401.75;5057055;27;97472;-75
2023/11/27 10:32:45;;;;;;;9.60;5.82;;;;;;;8.57;nan;99401.88;5039842;27;96561;-75
2023/11/27 10:35:12;;;;;;;9.68;5.63;;;;;;;8.66;nan;99408.50;5039410;27;96853;-71
2023/11/27 10:37:39;;;;;;;9.55;5.30;;;;;;;8.49;nan;99403.09;5039196;27;97576;-72
2023/11/27 10:40:08;;;;;;;12.40;5.93;;;;;;;8.53;nan;99407.31;5039296;27;100863;-73
2023/11/27 10:42:35;;;;;;;11.48;4.53;;;;;;;8.51;nan;99403.91;5039627;27;96691;-72
2023/11/27 10:45:08;;;;;;;12.43;4.57;;;;;;;8.23;nan;99399.75;5056183;27;96928;-75
2023/11/27 10:47:34;;;;;;;12.10;4.30;;;;;;;8.16;nan;99396.50;5040358;27;100889;-77
2023/11/27 10:50:00;;;;;;;8.48;4.65;;;;;;;8.01;nan;99388.41;5039284;27;101394;-76
2023/11/27 10:52:26;;;;;;;6.30;2.92;;;;;;;7.56;nan;99379.59;5039883;27;96539;-77
2023/11/27 10:54:52;;;;;;;5.95;2.80;;;;;;;7.53;nan;99386.72;5040186;27;96687;-78
2023/11/27 10:57:19;;;;;;;4.05;2.10;;;;;;;7.32;nan;99383.97;5038295;27;97743;-77
2023/11/27 10:59:46;;;;;;;5.05;2.50;;;;;;;7.11;nan;99369.91;5022383;27;101521;-77
2023/11/27 11:02:12;;;;;;;8.18;3.08;;;;;;;7.26;nan;99371.13;5022090;27;97119;-78
2023/11/27 11:04:50;;;;;;;7.88;3.72;;;;;;;7.13;nan;99370.72;5056483;27;96912;-76
2023/11/27 11:07:20;;;;;;;6.57;3.67;;;;;;;7.02;nan;99376.31;5039539;27;97647;-76
2023/11/27 11:09:48;;;;;;;11.38;4.63;;;;;;;6.63;nan;99364.59;5038730;27;100914;-76
2023/11/27 11:12:18;;;;;;;13.25;4.80;;;;;;;6.69;nan;99352.22;5056063;27;96705;-76
2023/11/27 11:14:44;;;;;;;7.65;4.15;;;;;;;6.55;nan;99352.69;5055916;27;96788;-77
2023/11/27 11:17:19;;;;;;;19.77;9.45;;;;;;;6.51;nan;99348.44;5056187;27;97564;-75
2023/11/27 11:20:01;;;;;;;54.42;23.63;;;;;;;6.51;nan;99330.19;5040201;27;97491;-76
2023/11/27 11:22:34;;;;;;;20.67;8.73;;;;;;;6.22;nan;99352.00;5038976;27;96566;-79
2023/11/27 11:25:35;;;;;;;14.02;5.93;;;;;;;6.13;nan;99341.88;5038635;27;96523;-77
2023/11/27 11:28:33;;;;;;;11.70;4.88;;;;;;;6.23;nan;99343.28;4990036;27;100965;-76
2023/11/27 11:31:17;;;;;;;6.18;3.53;;;;;;;5.99;nan;99337.09;5038493;27;101537;-74
2023/11/27 11:33:43;;;;;;;7.40;2.97;;;;;;;6.00;nan;99335.34;5055290;27;96564;-76
2023/11/27 11:36:13;;;;;;;32.70;15.13;;;;;;;6.06;nan;99342.97;5038641;27;96730;-75
2023/11/27 11:38:48;;;;;;;9.07;4.10;;;;;;;5.85;nan;99339.25;5055299;27;97944;-78
2023/11/27 11:41:17;;;;;;;9.65;4.50;;;;;;;5.83;nan;99333.22;5021942;27;100903;-75
2023/11/27 11:43:45;;;;;;;8.87;3.93;;;;;;;5.41;nan;99338.78;5055615;27;96700;-75